PWSweather.com
Personal Weather Stations
Station Observations
TARRYHILL
Tarrytown, NY 10591

Tarrytown, NY 10591

Lat: 41.05185, Lon: -73.85296

Elevation: 341

Station Type: Davis Vantage Vue

www.tarrytownnyweather.com

High Low Average
Temperature 39.1°F3.9°C 28.4°F-2.0°C 32.7°F0.4°C
Dew Point 29.0°F-1.7°C 19.9°F-6.7°C 24.1°F-4.4°C
Winds 10.4 mph 16.7 kmh 1.2 mph 1.9 kmh 4.0 mph SW6.4 kmh SW
Wind Gusts 19.6 mph31.5 kmh 2.3 mph3.7 kmh 8.0 mph12.9 kmh
Humidity 94% 55% 71%
Pressure 29.69 in1005.4 mb 29.51 in999.3 mb -
Precipitation 0.04 in1.0 mm - -
Hour Temp Dew Point Humidity Winds Wind Gusts Pressure Precip Precip Rate Daily Precip Total
12:00 AM 31.9°F-0.1°C 22.2°F-5.4°C 67% 3.5 mph WSW5.6 kmh WSW 5.8 mph9.3 kmh 29.69 in1005.4 mb - 0.00 in0.0 mm 0.00 in0.0 mm
12:30 AM 31.5°F-0.3°C 21.8°F-5.7°C 67% 5.8 mph WSW9.3 kmh WSW 10.4 mph16.7 kmh 29.69 in1005.4 mb - 0.00 in0.0 mm 0.00 in0.0 mm
01:00 AM 31.2°F-0.4°C 21.9°F-5.6°C 68% 3.5 mph WSW5.6 kmh WSW 6.9 mph11.1 kmh 29.69 in1005.4 mb - 0.00 in0.0 mm 0.00 in0.0 mm
01:30 AM 31.0°F-0.6°C 21.7°F-5.7°C 68% 2.3 mph WSW3.7 kmh WSW 8.1 mph13.0 kmh 29.68 in1005.1 mb - 0.00 in0.0 mm 0.00 in0.0 mm
02:00 AM 30.9°F-0.6°C 21.2°F-6.0°C 67% 1.2 mph SSW1.9 kmh SSW 3.5 mph5.6 kmh 29.68 in1005.1 mb - 0.00 in0.0 mm 0.00 in0.0 mm
02:30 AM 30.3°F-0.9°C 20.3°F-6.5°C 66% 3.5 mph S5.6 kmh S 8.1 mph13.0 kmh 29.68 in1005.1 mb - 0.00 in0.0 mm 0.00 in0.0 mm
03:00 AM 29.9°F-1.2°C 19.9°F-6.7°C 66% 1.2 mph SSW1.9 kmh SSW 3.5 mph5.6 kmh 29.67 in1004.7 mb - 0.00 in0.0 mm 0.00 in0.0 mm
03:30 AM 29.4°F-1.4°C 20.5°F-6.4°C 69% 3.5 mph SW5.6 kmh SW 8.1 mph13.0 kmh 29.66 in1004.4 mb - 0.00 in0.0 mm 0.00 in0.0 mm
04:00 AM 29.6°F-1.3°C 21.0°F-6.1°C 70% 3.5 mph SW5.6 kmh SW 6.9 mph11.1 kmh 29.65 in1004.1 mb - 0.00 in0.0 mm 0.00 in0.0 mm
04:30 AM 29.4°F-1.4°C 21.2°F-6.0°C 71% 2.3 mph SW3.7 kmh SW 4.6 mph7.4 kmh 29.65 in1004.1 mb - 0.00 in0.0 mm 0.00 in0.0 mm
05:00 AM 29.4°F-1.4°C 22.1°F-5.5°C 74% 4.6 mph SW7.4 kmh SW 10.4 mph16.7 kmh 29.65 in1004.1 mb - 0.00 in0.0 mm 0.00 in0.0 mm
05:30 AM 29.3°F-1.5°C 22.3°F-5.4°C 75% 3.5 mph SW5.6 kmh SW 4.6 mph7.4 kmh 29.64 in1003.7 mb - 0.00 in0.0 mm 0.00 in0.0 mm
06:00 AM 28.4°F-2.0°C 22.7°F-5.2°C 79% 2.3 mph S3.7 kmh S 5.8 mph9.3 kmh 29.64 in1003.7 mb - 0.00 in0.0 mm 0.00 in0.0 mm
06:30 AM 28.5°F-1.9°C 22.8°F-5.1°C 79% 1.2 mph WSW1.9 kmh WSW 3.5 mph5.6 kmh 29.64 in1003.7 mb - 0.00 in0.0 mm 0.00 in0.0 mm
07:00 AM 28.8°F-1.8°C 22.2°F-5.4°C 76% 2.3 mph SSW3.7 kmh SSW 3.5 mph5.6 kmh 29.64 in1003.7 mb - 0.00 in0.0 mm 0.00 in0.0 mm
07:30 AM 28.7°F-1.8°C 21.8°F-5.7°C 75% 1.2 mph SW1.9 kmh SW 2.3 mph3.7 kmh 29.64 in1003.7 mb - 0.00 in0.0 mm 0.00 in0.0 mm
08:00 AM 29.1°F-1.6°C 21.5°F-5.8°C 73% 4.6 mph SW7.4 kmh SW 5.8 mph9.3 kmh 29.65 in1004.1 mb - 0.00 in0.0 mm 0.00 in0.0 mm
08:30 AM 29.4°F-1.4°C 21.5°F-5.8°C 72% 4.6 mph SW7.4 kmh SW 9.2 mph14.8 kmh 29.64 in1003.7 mb - 0.00 in0.0 mm 0.00 in0.0 mm
09:00 AM 30.6°F-0.8°C 22.0°F-5.6°C 70% 1.2 mph WSW1.9 kmh WSW 2.3 mph3.7 kmh 29.64 in1003.7 mb - 0.00 in0.0 mm 0.00 in0.0 mm
09:30 AM 31.4°F-0.3°C 21.3°F-5.9°C 66% 3.5 mph WSW5.6 kmh WSW 5.8 mph9.3 kmh 29.63 in1003.4 mb - 0.00 in0.0 mm 0.00 in0.0 mm
10:00 AM 32.0°F0.0°C 21.9°F-5.6°C 66% 4.6 mph WSW7.4 kmh WSW 9.2 mph14.8 kmh 29.63 in1003.4 mb - 0.00 in0.0 mm 0.00 in0.0 mm
10:30 AM 33.2°F0.7°C 22.4°F-5.3°C 64% 4.6 mph SW7.4 kmh SW 10.4 mph16.7 kmh 29.62 in1003.0 mb - 0.00 in0.0 mm 0.00 in0.0 mm
11:00 AM 34.0°F1.1°C 22.3°F-5.4°C 62% 5.8 mph SW9.3 kmh SW 11.5 mph18.5 kmh 29.61 in1002.7 mb - 0.00 in0.0 mm 0.00 in0.0 mm
11:30 AM 35.1°F1.7°C 23.4°F-4.8°C 62% 5.8 mph SW9.3 kmh SW 6.9 mph11.1 kmh 29.60 in1002.4 mb - 0.00 in0.0 mm 0.00 in0.0 mm
12:00 PM 35.4°F1.9°C 22.8°F-5.1°C 60% 5.8 mph SW9.3 kmh SW 12.7 mph20.4 kmh 29.59 in1002.0 mb - 0.01 in0.3 mm 0.01 in0.3 mm
12:30 PM 35.8°F2.1°C 23.7°F-4.6°C 61% 3.5 mph SSW5.6 kmh SSW 6.9 mph11.1 kmh 29.58 in1001.7 mb - 0.00 in0.0 mm 0.01 in0.3 mm
01:00 PM 37.8°F3.2°C 23.5°F-4.7°C 56% 6.9 mph SW11.1 kmh SW 13.8 mph22.2 kmh 29.57 in1001.4 mb - 0.00 in0.0 mm 0.01 in0.3 mm
01:30 PM 37.8°F3.2°C 23.5°F-4.7°C 56% 5.8 mph SSW9.3 kmh SSW 11.5 mph18.5 kmh 29.56 in1001.0 mb - 0.00 in0.0 mm 0.01 in0.3 mm
02:00 PM 38.1°F3.4°C 23.8°F-4.6°C 56% 6.9 mph SW11.1 kmh SW 11.5 mph18.5 kmh 29.55 in1000.7 mb - 0.00 in0.0 mm 0.01 in0.3 mm
02:30 PM 39.1°F3.9°C 24.3°F-4.3°C 55% 6.9 mph WSW11.1 kmh WSW 10.4 mph16.7 kmh 29.54 in1000.3 mb - 0.01 in0.3 mm 0.02 in0.5 mm
03:00 PM 37.8°F3.2°C 25.2°F-3.8°C 60% 4.6 mph W7.4 kmh W 11.5 mph18.5 kmh 29.53 in1000.0 mb - 0.01 in0.3 mm 0.03 in0.8 mm
03:30 PM 37.9°F3.3°C 25.6°F-3.6°C 61% 3.5 mph SW5.6 kmh SW 8.1 mph13.0 kmh 29.52 in999.7 mb - 0.00 in0.0 mm 0.03 in0.8 mm
04:00 PM 36.7°F2.6°C 25.7°F-3.5°C 64% 3.5 mph WSW5.6 kmh WSW 13.8 mph22.2 kmh 29.52 in999.7 mb - 0.00 in0.0 mm 0.03 in0.8 mm
04:30 PM 37.5°F3.1°C 24.8°F-4.0°C 60% 5.8 mph WSW9.3 kmh WSW 10.4 mph16.7 kmh 29.51 in999.3 mb - 0.01 in0.3 mm 0.04 in1.0 mm
05:00 PM 35.9°F2.2°C 27.4°F-2.6°C 71% 4.6 mph SW7.4 kmh SW 5.8 mph9.3 kmh 29.51 in999.3 mb - 0.00 in0.0 mm 0.04 in1.0 mm
05:30 PM 35.6°F2.0°C 26.8°F-2.9°C 70% 10.4 mph SW16.7 kmh SW 19.6 mph31.5 kmh 29.51 in999.3 mb - 0.00 in0.0 mm 0.04 in1.0 mm
06:00 PM 34.5°F1.4°C 27.1°F-2.7°C 74% 3.5 mph SW5.6 kmh SW 11.5 mph18.5 kmh 29.52 in999.7 mb - 0.00 in0.0 mm 0.04 in1.0 mm
06:30 PM 34.9°F1.6°C 26.1°F-3.3°C 70% 8.1 mph WSW13.0 kmh WSW 11.5 mph18.5 kmh 29.52 in999.7 mb - 0.00 in0.0 mm 0.04 in1.0 mm
07:00 PM 34.2°F1.2°C 27.1°F-2.7°C 75% 4.6 mph SW7.4 kmh SW 6.9 mph11.1 kmh 29.53 in1000.0 mb - 0.00 in0.0 mm 0.04 in1.0 mm
07:30 PM 34.0°F1.1°C 27.9°F-2.3°C 78% 4.6 mph SW7.4 kmh SW 9.2 mph14.8 kmh 29.53 in1000.0 mb - 0.00 in0.0 mm 0.04 in1.0 mm
08:00 PM 34.0°F1.1°C 26.9°F-2.8°C 75% 3.5 mph WSW5.6 kmh WSW 5.8 mph9.3 kmh 29.55 in1000.7 mb - 0.00 in0.0 mm 0.04 in1.0 mm
08:30 PM 31.1°F-0.5°C 28.5°F-1.9°C 90% 2.3 mph SW3.7 kmh SW 3.5 mph5.6 kmh 29.56 in1001.0 mb - 0.00 in0.0 mm 0.04 in1.0 mm
09:00 PM 31.2°F-0.4°C 28.3°F-2.1°C 89% 2.3 mph SW3.7 kmh SW 5.8 mph9.3 kmh 29.57 in1001.4 mb - 0.00 in0.0 mm 0.04 in1.0 mm
09:30 PM 30.6°F-0.8°C 28.8°F-1.8°C 93% 3.5 mph SW5.6 kmh SW 10.4 mph16.7 kmh 29.57 in1001.4 mb - 0.00 in0.0 mm 0.04 in1.0 mm
10:00 PM 30.5°F-0.8°C 29.0°F-1.7°C 94% 3.5 mph WSW5.6 kmh WSW 5.8 mph9.3 kmh 29.57 in1001.4 mb - 0.00 in0.0 mm 0.04 in1.0 mm
10:30 PM 30.4°F-0.9°C 28.9°F-1.7°C 94% 1.2 mph SW1.9 kmh SW 3.5 mph5.6 kmh 29.57 in1001.4 mb - 0.00 in0.0 mm 0.04 in1.0 mm
11:00 PM 30.9°F-0.6°C 28.1°F-2.2°C 89% 1.2 mph WSW1.9 kmh WSW 5.8 mph9.3 kmh 29.57 in1001.4 mb - 0.00 in0.0 mm 0.04 in1.0 mm
11:30 PM 31.6°F-0.2°C 26.7°F-2.9°C 82% 4.6 mph SSW7.4 kmh SSW 10.4 mph16.7 kmh 29.57 in1001.4 mb - 0.00 in0.0 mm 0.04 in1.0 mm